Terminal Aerodrome Forecast
Issued by NWS Corpus Christi, TX

Home | Current Version | Previous Version | Text Only | Print | Product List | Glossary On
Versions: 1 2 3 4 5 6 7 8 9 10 11 12 13 14 15 16 17 18 19 20 21 22
000
FTUS44 KCRP 291100
TAFCRP
TAF
KCRP 291137Z 2912/3012 15006KT P6SM MIFG FEW250
      TEMPO 2913/2915 5SM BR FEW007 SCT250
     FM291500 16013KT P6SM FEW015 SCT250
     FM292100 13010KT P6SM SCT250
     FM300400 12005KT P6SM FEW010 SCT250
      TEMPO 3006/3009 4SM BR BKN010
     FM301000 02012KT P6SM BKN015=

USA.gov is the U.S. government's official web portal to all federal, state and local government web resources and services.